Metar z pełnej godziny Komunikat METAR ze strony awiacja.imgw.pl Metar G00 EPRZ METAR EPRZ 240500Z 09005KT 7000 OVC036 M06/M07 Q1028 R27/81//95 =